Time;durP1;ratioP1;P1;durP2;ratioP2;P2;SDS_P1;SDS_P2;PMS_P1;PMS_P2;Temp;Humidity;BMP_temperature;BMP_pressure;BME280_temperature;BME280_humidity;BME280_pressure;Samples;Min_cycle;Max_cycle;Signal;HPM_P1;HPM_P2
2022/12/06 00:02:42;;;;;;;50.03;29.37;;;4.40;99.90;;;;;;5055433;28;20217;-68
2022/12/06 00:05:31;;;;;;;46.80;29.67;;;4.30;99.90;;;;;;5058595;28;20248;-71
2022/12/06 00:08:20;;;;;;;46.47;28.70;;;4.30;99.90;;;;;;5056696;28;20224;-72
2022/12/06 00:11:11;;;;;;;45.53;29.40;;;4.30;99.90;;;;;;5053258;28;20434;-72
2022/12/06 00:14:02;;;;;;;48.50;29.60;;;4.20;99.90;;;;;;5052247;28;20225;-72
2022/12/06 00:16:52;;;;;;;49.70;29.93;;;4.30;99.90;;;;;;5057188;28;20315;-75
2022/12/06 00:19:41;;;;;;;47.60;29.77;;;4.30;99.90;;;;;;5058135;28;20232;-71
2022/12/06 00:22:30;;;;;;;44.77;28.53;;;4.20;99.90;;;;;;5060210;28;20225;-72
2022/12/06 00:25:18;;;;;;;52.70;30.40;;;4.30;99.90;;;;;;5042933;28;20225;-72
2022/12/06 00:28:07;;;;;;;49.13;29.93;;;4.20;99.90;;;;;;5043733;28;20227;-71
2022/12/06 00:30:59;;;;;;;47.77;30.67;;;4.20;99.90;;;;;;5046297;28;20227;-72
2022/12/06 00:33:48;;;;;;;45.93;29.87;;;4.30;99.90;;;;;;5047742;28;20228;-73
2022/12/06 00:36:39;;;;;;;47.77;30.67;;;4.30;99.90;;;;;;5041732;28;20228;-72
2022/12/06 00:39:27;;;;;;;47.97;30.00;;;4.30;99.90;;;;;;5050123;28;20227;-72
2022/12/06 00:42:16;;;;;;;52.40;30.53;;;4.20;99.90;;;;;;5043551;28;20502;-72
2022/12/06 00:45:06;;;;;;;52.13;32.27;;;4.20;99.90;;;;;;5037817;28;20225;-71
2022/12/06 00:47:55;;;;;;;48.63;31.03;;;4.30;99.90;;;;;;5058103;28;20312;-72
2022/12/06 00:50:44;;;;;;;50.47;32.17;;;4.30;99.90;;;;;;5058124;28;20212;-72
2022/12/06 00:53:32;;;;;;;50.60;32.43;;;4.20;99.90;;;;;;5056728;28;20251;-72
2022/12/06 00:56:23;;;;;;;48.37;31.17;;;4.20;99.90;;;;;;5043622;28;20526;-71
2022/12/06 00:59:12;;;;;;;48.93;31.27;;;4.20;99.90;;;;;;5057947;28;20964;-72
2022/12/06 01:02:00;;;;;;;50.83;30.90;;;4.20;99.90;;;;;;5038158;28;20229;-71
2022/12/06 01:04:50;;;;;;;48.50;30.40;;;4.20;99.90;;;;;;5042431;28;20232;-72
2022/12/06 01:07:39;;;;;;;53.97;32.43;;;4.20;99.90;;;;;;5045844;28;20220;-72
2022/12/06 01:10:28;;;;;;;51.70;31.13;;;4.20;99.90;;;;;;5062139;28;20603;-72
2022/12/06 01:13:16;;;;;;;52.20;31.70;;;4.30;99.90;;;;;;5044944;28;20327;-70
2022/12/06 01:16:07;;;;;;;50.07;30.90;;;4.30;99.90;;;;;;5062564;28;20224;-72
2022/12/06 01:18:57;;;;;;;50.87;31.50;;;4.20;99.90;;;;;;5056459;28;20611;-71
2022/12/06 01:21:48;;;;;;;48.73;31.80;;;4.20;99.90;;;;;;5057166;28;20219;-71
2022/12/06 01:24:37;;;;;;;50.57;32.00;;;4.30;99.90;;;;;;5059575;28;20255;-72
2022/12/06 01:27:26;;;;;;;52.13;32.63;;;4.20;99.90;;;;;;5043392;28;20924;-70
2022/12/06 01:30:14;;;;;;;54.60;32.87;;;4.20;99.90;;;;;;5034997;28;20244;-71
2022/12/06 01:33:03;;;;;;;53.07;32.10;;;4.20;99.90;;;;;;5059114;28;20220;-72
2022/12/06 01:35:51;;;;;;;46.50;30.07;;;4.20;99.90;;;;;;5050876;28;20901;-71
2022/12/06 01:38:42;;;;;;;51.37;30.77;;;4.20;99.90;;;;;;5054838;28;20647;-70
2022/12/06 01:41:30;;;;;;;52.57;32.10;;;4.20;99.90;;;;;;5054873;28;20215;-71
2022/12/06 01:44:40;;;;;;;54.03;32.43;;;4.10;99.90;;;;;;5056153;28;20299;-71
2022/12/06 01:47:31;;;;;;;55.00;31.67;;;4.10;99.90;;;;;;5043250;28;20239;-71
2022/12/06 01:50:24;;;;;;;52.17;31.83;;;4.00;99.90;;;;;;5056680;28;20272;-67
2022/12/06 01:53:14;;;;;;;47.90;30.60;;;4.20;99.90;;;;;;5042856;28;20274;-71
2022/12/06 01:56:04;;;;;;;48.53;30.43;;;4.20;99.90;;;;;;5057340;28;20224;-71
2022/12/06 01:58:56;;;;;;;52.60;31.60;;;4.20;99.90;;;;;;5041082;28;20216;-72
2022/12/06 02:01:46;;;;;;;52.97;31.20;;;4.30;99.90;;;;;;5058636;28;20295;-72
2022/12/06 02:04:36;;;;;;;52.20;31.20;;;4.30;99.90;;;;;;5058350;28;20898;-71
2022/12/06 02:07:26;;;;;;;51.77;31.00;;;4.30;99.90;;;;;;5062121;28;20235;-71
2022/12/06 02:10:15;;;;;;;53.43;31.03;;;4.30;99.90;;;;;;5042500;28;20223;-71
2022/12/06 02:13:06;;;;;;;52.07;31.90;;;4.30;99.90;;;;;;5039251;28;20242;-71
2022/12/06 02:16:06;;;;;;;58.47;32.43;;;4.20;99.90;;;;;;5052031;28;20239;-71
2022/12/06 02:18:59;;;;;;;51.53;31.07;;;4.10;99.90;;;;;;5059147;28;20248;-75
2022/12/06 02:21:55;;;;;;;51.53;32.40;;;4.20;99.90;;;;;;5045691;28;20228;-72
2022/12/06 02:25:04;;;;;;;58.37;31.50;;;4.10;99.90;;;;;;5044938;28;20232;-71
2022/12/06 02:28:20;;;;;;;54.50;30.47;;;4.20;99.90;;;;;;5053009;28;20223;-72
2022/12/06 02:31:15;;;;;;;52.93;30.40;;;4.20;99.90;;;;;;5056730;28;20232;-72
2022/12/06 02:34:13;;;;;;;53.60;30.63;;;4.10;99.90;;;;;;5044376;28;20297;-71
2022/12/06 02:37:09;;;;;;;51.63;30.80;;;4.20;99.90;;;;;;5059326;28;20242;-72
2022/12/06 02:40:03;;;;;;;52.67;31.43;;;4.20;99.90;;;;;;5040092;28;20228;-71
2022/12/06 02:42:55;;;;;;;52.77;30.87;;;4.30;99.90;;;;;;5058197;28;20224;-69
2022/12/06 02:45:48;;;;;;;54.40;31.67;;;4.20;99.90;;;;;;5063803;28;20223;-71
2022/12/06 02:48:40;;;;;;;48.57;29.73;;;4.30;99.90;;;;;;5054631;28;20292;-71
2022/12/06 02:51:31;;;;;;;54.27;31.93;;;4.20;99.90;;;;;;5059242;28;20817;-71
2022/12/06 02:54:22;;;;;;;49.63;30.47;;;4.20;99.90;;;;;;5040787;28;20561;-70
2022/12/06 02:57:10;;;;;;;53.20;31.70;;;4.30;99.90;;;;;;5060297;28;20509;-72
2022/12/06 02:59:59;;;;;;;51.80;31.23;;;4.20;99.90;;;;;;5042710;28;20240;-71
2022/12/06 03:02:48;;;;;;;55.03;31.60;;;4.20;99.90;;;;;;5061600;28;20311;-69
2022/12/06 03:05:42;;;;;;;50.53;29.30;;;4.20;99.90;;;;;;5042399;28;20238;-70
2022/12/06 03:08:41;;;;;;;51.63;30.47;;;4.30;99.90;;;;;;5061112;28;20319;-71
2022/12/06 03:11:44;;;;;;;50.37;29.40;;;4.30;99.90;;;;;;5061404;28;20225;-72
2022/12/06 03:14:40;;;;;;;48.23;29.23;;;4.30;99.90;;;;;;5054096;28;20299;-71
2022/12/06 03:17:36;;;;;;;51.47;29.50;;;4.30;99.90;;;;;;5045052;28;20952;-71
2022/12/06 03:20:29;;;;;;;53.73;30.90;;;4.30;99.90;;;;;;5055388;28;20603;-72
2022/12/06 03:23:23;;;;;;;56.80;29.57;;;4.30;99.90;;;;;;5045732;28;20255;-72
2022/12/06 03:26:15;;;;;;;54.83;31.50;;;4.30;99.90;;;;;;5057953;28;20252;-72
2022/12/06 03:29:07;;;;;;;53.03;31.20;;;4.30;99.90;;;;;;5056380;28;20235;-71
2022/12/06 03:32:00;;;;;;;50.90;30.83;;;4.40;99.90;;;;;;5056782;28;20304;-72
2022/12/06 03:34:51;;;;;;;51.20;31.33;;;4.30;99.90;;;;;;5045600;28;20812;-72
2022/12/06 03:37:43;;;;;;;51.30;30.23;;;4.30;99.90;;;;;;5058951;28;20228;-72
2022/12/06 03:40:36;;;;;;;51.80;29.70;;;4.30;99.90;;;;;;5061519;28;20243;-71
2022/12/06 03:43:25;;;;;;;53.90;30.87;;;4.20;99.90;;;;;;5057170;28;20232;-70
2022/12/06 03:46:17;;;;;;;53.03;31.40;;;4.30;99.90;;;;;;5055616;28;20254;-73
2022/12/06 03:49:12;;;;;;;52.20;30.13;;;4.20;99.90;;;;;;5056089;28;20228;-71
2022/12/06 03:52:00;;;;;;;50.63;30.83;;;4.30;99.90;;;;;;5042921;28;20235;-71
2022/12/06 03:54:49;;;;;;;55.40;30.07;;;4.30;99.90;;;;;;5039240;28;20228;-73
2022/12/06 03:57:39;;;;;;;51.27;29.13;;;4.20;99.90;;;;;;5058712;28;20220;-73
2022/12/06 04:00:27;;;;;;;51.93;31.23;;;4.30;99.90;;;;;;5051754;28;20217;-72
2022/12/06 04:03:16;;;;;;;53.30;32.00;;;4.40;99.90;;;;;;5043607;28;20591;-72
2022/12/06 04:06:06;;;;;;;52.90;30.17;;;4.40;99.90;;;;;;5055037;28;20721;-73
2022/12/06 04:09:50;;;;;;;53.30;31.37;;;4.40;99.90;;;;;;5057353;28;20464;-71
2022/12/06 04:12:59;;;;;;;47.07;29.27;;;4.20;99.90;;;;;;5038012;28;20224;-71
2022/12/06 04:15:14;;;;;;;51.97;30.47;;;4.30;99.90;;;;;;5037268;28;20713;-72
2022/12/06 04:18:13;;;;;;;53.00;30.43;;;4.30;99.90;;;;;;5055728;28;20228;-72
2022/12/06 04:24:09;;;;;;;49.13;29.40;;;4.30;99.90;;;;;;5037782;28;20326;-72
2022/12/06 04:28:40;;;;;;;50.50;30.43;;;4.20;99.90;;;;;;5058596;28;20275;-72
2022/12/06 04:39:29;;;;;;;50.70;29.27;;;4.10;99.90;;;;;;5054597;28;20229;-71
2022/12/06 04:45:23;;;;;;;49.27;27.90;;;4.30;99.90;;;;;;5040784;28;20227;-72
2022/12/06 04:48:12;;;;;;;50.47;29.00;;;4.20;99.90;;;;;;5056634;28;20719;-71
2022/12/06 04:51:02;;;;;;;49.53;29.20;;;4.20;99.90;;;;;;5054279;28;20235;-70
2022/12/06 04:53:50;;;;;;;52.80;29.47;;;4.30;99.90;;;;;;5055280;28;20221;-72
2022/12/06 04:56:39;;;;;;;48.77;28.60;;;4.20;99.90;;;;;;5054399;28;20227;-71
2022/12/06 04:59:28;;;;;;;52.87;29.57;;;4.20;99.90;;;;;;5056928;28;20335;-72
2022/12/06 05:02:17;;;;;;;46.33;28.00;;;4.20;99.90;;;;;;5040780;28;20208;-72
2022/12/06 05:05:06;;;;;;;46.57;27.67;;;4.30;99.90;;;;;;5052298;28;20228;-71
2022/12/06 05:07:57;;;;;;;48.27;27.87;;;4.20;99.90;;;;;;5038017;28;20418;-71
2022/12/06 05:10:48;;;;;;;48.53;27.80;;;4.20;99.90;;;;;;5038702;28;20629;-72
2022/12/06 05:13:36;;;;;;;54.47;28.93;;;4.30;99.90;;;;;;5045489;28;20307;-71
2022/12/06 05:16:25;;;;;;;47.80;27.80;;;4.20;99.90;;;;;;5056020;28;20311;-71
2022/12/06 05:19:14;;;;;;;51.53;27.00;;;4.20;99.90;;;;;;5055120;28;20225;-73
2022/12/06 05:22:02;;;;;;;47.67;26.57;;;4.10;99.90;;;;;;5058325;28;20259;-73
2022/12/06 05:24:52;;;;;;;47.47;28.07;;;4.20;99.90;;;;;;5058603;28;20224;-73
2022/12/06 05:27:41;;;;;;;44.87;27.17;;;4.20;99.90;;;;;;5053580;28;20615;-76
2022/12/06 05:30:29;;;;;;;45.33;27.20;;;4.20;99.90;;;;;;5053833;28;20307;-74
2022/12/06 05:33:18;;;;;;;43.57;25.77;;;4.20;99.90;;;;;;5037280;28;20229;-74
2022/12/06 05:36:08;;;;;;;42.57;26.13;;;4.20;99.90;;;;;;5056875;28;20235;-73
2022/12/06 05:38:57;;;;;;;43.23;26.10;;;4.10;99.90;;;;;;5045758;28;20228;-73
2022/12/06 05:41:47;;;;;;;46.50;25.40;;;4.20;99.90;;;;;;5040602;28;20266;-73
2022/12/06 05:44:35;;;;;;;45.13;25.40;;;4.10;99.90;;;;;;5052649;28;20813;-72
2022/12/06 05:47:24;;;;;;;46.63;26.77;;;4.00;99.90;;;;;;5053406;28;20366;-72
2022/12/06 05:50:13;;;;;;;45.23;25.53;;;4.10;99.90;;;;;;5054223;28;20248;-73
2022/12/06 05:53:02;;;;;;;42.20;25.57;;;4.00;99.90;;;;;;5054157;28;22000;-73
2022/12/06 05:55:50;;;;;;;43.30;25.93;;;4.00;99.90;;;;;;5051347;28;20240;-72
2022/12/06 05:58:40;;;;;;;47.77;26.10;;;4.10;99.90;;;;;;5056915;28;20235;-72
2022/12/06 06:01:29;;;;;;;46.17;27.37;;;4.00;99.90;;;;;;5039948;28;20268;-72
2022/12/06 06:04:17;;;;;;;46.33;26.00;;;4.10;99.90;;;;;;5037443;28;20231;-73
2022/12/06 06:07:06;;;;;;;40.77;24.67;;;4.10;99.90;;;;;;5050519;28;20249;-73
2022/12/06 06:09:54;;;;;;;40.40;25.23;;;4.10;99.90;;;;;;5046561;28;20224;-73
2022/12/06 06:12:44;;;;;;;37.30;24.10;;;4.10;99.90;;;;;;5044105;28;20220;-72
2022/12/06 06:15:34;;;;;;;38.13;23.90;;;4.00;99.90;;;;;;5059707;28;20311;-72
2022/12/06 06:18:23;;;;;;;38.20;23.87;;;3.90;99.90;;;;;;5062091;28;20228;-70
2022/12/06 06:21:11;;;;;;;37.43;23.47;;;4.00;99.90;;;;;;5042091;28;20236;-72
2022/12/06 06:24:00;;;;;;;38.03;23.43;;;4.10;99.90;;;;;;5051481;28;20217;-71
2022/12/06 06:26:48;;;;;;;36.83;22.73;;;4.10;99.90;;;;;;5055285;28;20224;-71
2022/12/06 06:29:37;;;;;;;40.20;23.97;;;4.00;99.90;;;;;;5058431;28;20225;-73
2022/12/06 06:32:34;;;;;;;39.30;24.30;;;4.10;99.90;;;;;;5055093;28;20225;-72
2022/12/06 06:35:22;;;;;;;35.73;23.10;;;4.10;99.90;;;;;;5058055;28;20762;-72
2022/12/06 06:38:11;;;;;;;38.93;23.60;;;4.00;99.90;;;;;;5041801;28;20766;-72
2022/12/06 06:41:01;;;;;;;39.63;24.40;;;4.10;99.90;;;;;;5039002;28;20232;-72
2022/12/06 06:43:50;;;;;;;37.43;23.63;;;4.10;99.90;;;;;;5055659;28;20223;-73
2022/12/06 06:46:39;;;;;;;36.43;23.50;;;4.10;99.90;;;;;;5036618;28;21881;-73
2022/12/06 06:49:29;;;;;;;37.73;23.33;;;4.10;99.90;;;;;;5054864;28;20224;-73
2022/12/06 06:52:18;;;;;;;39.23;23.50;;;4.20;99.90;;;;;;5057483;28;20588;-73
2022/12/06 06:55:08;;;;;;;35.10;23.07;;;3.90;99.90;;;;;;5056122;28;20263;-74
2022/12/06 06:57:56;;;;;;;36.07;23.07;;;4.10;99.90;;;;;;5041154;28;20216;-73
2022/12/06 07:00:45;;;;;;;37.87;24.20;;;4.00;99.90;;;;;;5038273;28;20246;-73
2022/12/06 07:03:34;;;;;;;40.37;23.27;;;4.00;99.90;;;;;;5045045;28;20243;-72
2022/12/06 07:06:24;;;;;;;34.23;21.87;;;4.00;99.90;;;;;;5055853;28;20231;-72
2022/12/06 07:09:13;;;;;;;33.80;22.37;;;4.10;99.90;;;;;;5057758;28;20322;-72
2022/12/06 07:12:01;;;;;;;35.90;22.93;;;4.10;99.90;;;;;;5056131;28;20220;-75
2022/12/06 07:14:50;;;;;;;35.47;22.27;;;4.20;99.90;;;;;;5059734;28;20250;-73
2022/12/06 07:17:39;;;;;;;33.10;22.37;;;4.00;99.90;;;;;;5056842;28;20228;-72
2022/12/06 07:20:27;;;;;;;33.07;22.47;;;4.10;99.90;;;;;;5053615;28;20234;-72
2022/12/06 07:23:17;;;;;;;34.37;21.93;;;4.00;99.90;;;;;;5052711;28;20243;-72
2022/12/06 07:26:09;;;;;;;37.20;23.53;;;4.10;99.90;;;;;;5040220;28;20220;-73
2022/12/06 07:28:59;;;;;;;36.10;21.10;;;4.20;99.90;;;;;;5059301;28;20232;-72
2022/12/06 07:31:48;;;;;;;34.67;21.43;;;4.10;99.90;;;;;;5053463;28;20263;-73
2022/12/06 07:34:36;;;;;;;35.43;22.27;;;4.10;99.90;;;;;;5057263;28;20232;-71
2022/12/06 07:37:25;;;;;;;39.13;22.77;;;4.10;99.90;;;;;;5066876;28;20219;-72
2022/12/06 07:40:16;;;;;;;36.13;22.10;;;4.20;99.90;;;;;;5042965;28;20236;-72
2022/12/06 07:46:10;;;;;;;32.73;21.27;;;4.30;99.90;;;;;;5047117;28;20235;-72
2022/12/06 07:48:59;;;;;;;35.30;22.37;;;4.20;99.90;;;;;;5041215;28;20228;-73
2022/12/06 07:51:48;;;;;;;38.10;22.83;;;4.10;99.90;;;;;;5043685;28;20212;-71
2022/12/06 07:54:36;;;;;;;36.77;22.73;;;4.10;99.90;;;;;;5043912;28;20221;-73
2022/12/06 07:57:26;;;;;;;38.23;24.43;;;4.10;99.90;;;;;;5052064;28;20219;-72
2022/12/06 08:00:16;;;;;;;36.10;24.07;;;4.10;99.90;;;;;;5055055;28;20304;-72
2022/12/06 08:03:05;;;;;;;40.40;25.63;;;4.20;99.90;;;;;;5041715;28;20221;-72
2022/12/06 08:05:54;;;;;;;42.73;26.53;;;4.20;99.90;;;;;;5046894;28;20232;-72
2022/12/06 08:08:43;;;;;;;39.43;25.37;;;4.20;99.90;;;;;;5057839;28;20768;-72
2022/12/06 08:11:31;;;;;;;41.40;25.67;;;4.10;99.90;;;;;;5053573;28;20235;-72
2022/12/06 08:14:22;;;;;;;43.43;26.27;;;4.10;99.90;;;;;;5043825;28;20224;-72
2022/12/06 08:17:10;;;;;;;42.43;27.43;;;4.20;99.90;;;;;;5057043;28;20227;-72
2022/12/06 08:19:59;;;;;;;49.03;27.97;;;4.20;99.90;;;;;;5029299;28;20239;-71
2022/12/06 08:22:48;;;;;;;50.10;28.27;;;4.20;99.90;;;;;;5028024;28;20304;-72
2022/12/06 08:25:36;;;;;;;48.80;29.07;;;4.20;99.90;;;;;;5022106;28;20704;-71
2022/12/06 08:28:25;;;;;;;50.33;28.50;;;4.20;99.90;;;;;;5034964;28;20241;-70
2022/12/06 08:31:18;;;;;;;52.07;30.77;;;4.10;99.90;;;;;;5033263;28;20647;-72
2022/12/06 08:34:07;;;;;;;47.40;28.77;;;4.10;99.90;;;;;;5034284;28;20221;-73
2022/12/06 08:36:55;;;;;;;52.93;30.57;;;4.10;99.90;;;;;;5040565;28;20283;-72
2022/12/06 08:39:50;;;;;;;55.80;31.03;;;4.10;99.90;;;;;;5025600;28;20355;-73
2022/12/06 08:42:40;;;;;;;56.47;30.87;;;4.10;99.90;;;;;;5037182;28;20296;-73
2022/12/06 08:45:29;;;;;;;57.00;30.27;;;4.10;99.90;;;;;;5027476;28;20218;-72
2022/12/06 08:48:19;;;;;;;57.13;31.10;;;4.20;99.90;;;;;;5038647;28;20247;-72
2022/12/06 08:51:07;;;;;;;64.13;35.80;;;4.20;99.90;;;;;;5022881;28;20229;-70
2022/12/06 08:53:56;;;;;;;53.97;31.73;;;4.20;99.90;;;;;;5026992;28;20294;-71
2022/12/06 08:56:45;;;;;;;58.00;32.47;;;4.30;99.90;;;;;;5026894;28;20221;-71
2022/12/06 08:59:34;;;;;;;54.40;32.13;;;4.40;99.90;;;;;;5039297;28;20337;-73
2022/12/06 09:02:23;;;;;;;52.97;30.63;;;4.20;99.90;;;;;;5039954;28;20236;-72
2022/12/06 09:05:12;;;;;;;52.57;31.27;;;4.20;99.90;;;;;;5035679;28;20232;-71
2022/12/06 09:08:01;;;;;;;51.57;31.23;;;4.30;99.90;;;;;;5021972;28;20217;-72
2022/12/06 09:10:50;;;;;;;55.83;30.30;;;4.30;99.90;;;;;;5036702;28;20583;-73
2022/12/06 09:13:38;;;;;;;51.93;29.27;;;4.50;99.90;;;;;;5035262;28;20228;-73
2022/12/06 09:16:27;;;;;;;57.43;30.63;;;4.40;99.90;;;;;;5024098;28;20213;-72
2022/12/06 09:19:16;;;;;;;56.53;30.90;;;4.40;99.90;;;;;;5053208;28;20310;-72
2022/12/06 09:22:06;;;;;;;55.20;31.57;;;4.40;99.90;;;;;;5058137;28;20223;-72
2022/12/06 09:24:54;;;;;;;57.50;32.30;;;4.40;99.90;;;;;;5055337;28;20263;-73
2022/12/06 09:27:43;;;;;;;53.47;31.30;;;4.60;99.90;;;;;;5052760;28;20232;-71
2022/12/06 09:30:31;;;;;;;55.50;30.53;;;4.40;99.90;;;;;;5055756;28;20223;-72
2022/12/06 09:33:21;;;;;;;54.97;31.23;;;4.40;99.90;;;;;;5054662;28;20232;-72
2022/12/06 09:36:14;;;;;;;53.43;31.70;;;4.50;99.90;;;;;;5054094;28;20232;-73
2022/12/06 09:39:10;;;;;;;57.73;32.87;;;4.50;99.90;;;;;;5051102;28;20270;-72
2022/12/06 09:42:32;;;;;;;58.80;31.77;;;4.60;99.90;;;;;;5038347;28;20270;-72
2022/12/06 09:45:33;;;;;;;54.80;31.87;;;4.60;99.90;;;;;;5050584;28;20224;-72
2022/12/06 09:48:55;;;;;;;52.00;30.77;;;4.60;99.90;;;;;;5055714;28;20227;-72
2022/12/06 09:52:02;;;;;;;56.70;31.13;;;4.70;99.90;;;;;;5054389;28;20228;-73
2022/12/06 09:55:03;;;;;;;54.30;31.33;;;4.50;99.90;;;;;;5040352;28;20388;-72
2022/12/06 09:57:57;;;;;;;56.57;31.57;;;4.50;99.90;;;;;;5052696;28;20232;-72
2022/12/06 10:00:53;;;;;;;59.17;32.10;;;4.50;99.90;;;;;;5042398;28;20243;-71
2022/12/06 10:03:58;;;;;;;52.70;31.10;;;4.60;99.90;;;;;;5055606;28;20226;-71
2022/12/06 10:06:55;;;;;;;56.47;32.13;;;4.60;99.90;;;;;;5055418;28;20212;-72
2022/12/06 10:09:54;;;;;;;53.20;30.50;;;4.60;99.90;;;;;;5036392;28;20221;-71
2022/12/06 10:12:57;;;;;;;55.70;32.30;;;4.60;99.90;;;;;;5047283;28;20228;-71
2022/12/06 10:15:53;;;;;;;54.60;30.87;;;4.70;99.90;;;;;;5034967;28;20891;-72
2022/12/06 10:18:56;;;;;;;58.10;31.10;;;4.70;99.90;;;;;;5057201;28;20236;-72
2022/12/06 10:21:53;;;;;;;60.03;32.47;;;4.60;99.90;;;;;;5056905;28;20230;-73
2022/12/06 10:24:57;;;;;;;57.53;32.60;;;4.80;99.90;;;;;;5041020;28;20610;-73
2022/12/06 10:27:54;;;;;;;58.37;32.93;;;4.70;99.90;;;;;;5053639;28;20227;-72
2022/12/06 10:30:50;;;;;;;56.57;32.80;;;4.50;99.90;;;;;;5050641;28;20217;-74
2022/12/06 10:33:52;;;;;;;58.97;33.20;;;4.50;99.90;;;;;;5054277;28;20220;-74
2022/12/06 10:36:48;;;;;;;64.47;33.50;;;4.60;99.90;;;;;;5036629;28;20560;-74
2022/12/06 10:39:46;;;;;;;62.33;32.80;;;4.60;99.90;;;;;;5056075;28;20311;-77
2022/12/06 10:42:43;;;;;;;64.90;34.50;;;4.70;99.90;;;;;;5036303;28;20233;-74
2022/12/06 10:48:55;;;;;;;65.43;33.00;;;4.90;99.90;;;;;;5046623;28;20224;-74
2022/12/06 10:51:48;;;;;;;61.87;34.43;;;4.80;99.90;;;;;;5057605;28;20306;-73
2022/12/06 10:54:41;;;;;;;64.47;32.50;;;4.80;99.90;;;;;;5056345;28;20235;-73
2022/12/06 10:57:36;;;;;;;67.80;32.03;;;4.60;99.90;;;;;;5027557;28;20228;-72
2022/12/06 11:00:26;;;;;;;67.63;34.40;;;4.50;99.90;;;;;;5039294;28;20232;-73
2022/12/06 11:03:21;;;;;;;68.10;33.70;;;4.60;99.90;;;;;;5053327;28;20228;-76
2022/12/06 11:06:15;;;;;;;66.93;33.47;;;4.70;99.90;;;;;;5039153;28;20224;-74
2022/12/06 11:09:12;;;;;;;63.27;33.73;;;4.90;99.90;;;;;;5053380;28;20228;-74
2022/12/06 11:12:01;;;;;;;72.67;34.27;;;4.80;99.90;;;;;;5055363;28;20677;-75
2022/12/06 11:14:55;;;;;;;72.57;33.73;;;4.70;99.90;;;;;;5042284;28;20231;-74
2022/12/06 11:17:47;;;;;;;63.73;32.83;;;4.70;99.90;;;;;;5042826;28;20224;-75
2022/12/06 11:20:46;;;;;;;70.37;34.77;;;4.60;99.90;;;;;;5056077;28;20819;-75
2022/12/06 11:23:44;;;;;;;74.60;36.47;;;4.60;99.90;;;;;;5039871;28;20227;-75
2022/12/06 11:26:38;;;;;;;70.50;33.73;;;4.50;99.90;;;;;;5056977;28;20224;-75
2022/12/06 11:29:27;;;;;;;65.83;31.30;;;4.50;99.90;;;;;;5029131;28;20219;-75
2022/12/06 11:32:17;;;;;;;62.33;32.03;;;4.60;99.90;;;;;;5038780;28;20225;-73
2022/12/06 11:35:11;;;;;;;59.83;31.07;;;4.60;99.90;;;;;;5058274;28;20702;-78
2022/12/06 11:38:05;;;;;;;64.63;33.23;;;4.70;99.90;;;;;;5041090;28;20224;-73
2022/12/06 11:40:56;;;;;;;61.53;32.50;;;4.70;99.90;;;;;;5056780;28;20723;-72
2022/12/06 11:43:45;;;;;;;64.50;31.00;;;4.70;99.90;;;;;;5057330;28;20301;-72
2022/12/06 11:46:34;;;;;;;63.60;33.03;;;4.70;99.90;;;;;;5043184;28;20224;-73
2022/12/06 11:49:31;;;;;;;65.27;33.87;;;4.70;99.90;;;;;;5044412;28;20228;-72
2022/12/06 11:52:25;;;;;;;68.83;33.90;;;4.70;99.90;;;;;;5043037;28;20227;-73
2022/12/06 11:55:21;;;;;;;59.70;32.47;;;4.50;99.90;;;;;;5053727;28;20220;-71
2022/12/06 11:58:15;;;;;;;60.70;33.80;;;4.60;99.90;;;;;;5043621;28;20254;-72
2022/12/06 12:01:09;;;;;;;68.27;34.33;;;4.60;99.90;;;;;;5057616;28;20221;-72
2022/12/06 12:03:58;;;;;;;65.23;33.60;;;4.50;99.90;;;;;;5037042;28;20296;-72
2022/12/06 12:06:47;;;;;;;60.33;31.80;;;4.60;99.90;;;;;;5059916;28;20212;-73
2022/12/06 12:09:45;;;;;;;65.60;35.63;;;4.60;99.90;;;;;;5040941;28;20637;-72
2022/12/06 12:16:12;;;;;;;66.93;33.43;;;4.70;99.90;;;;;;4980508;28;20230;-73
2022/12/06 12:19:02;;;;;;;72.17;35.73;;;4.70;99.90;;;;;;4982350;28;20226;-72
2022/12/06 12:21:52;;;;;;;74.77;35.60;;;4.80;99.90;;;;;;5035437;28;20635;-72
2022/12/06 12:24:47;;;;;;;64.87;34.67;;;4.70;99.90;;;;;;5055209;28;20592;-72
2022/12/06 12:27:58;;;;;;;71.67;35.40;;;4.70;99.90;;;;;;5038631;28;20220;-72
2022/12/06 12:30:53;;;;;;;74.83;37.07;;;4.80;99.90;;;;;;5055838;28;20237;-72
2022/12/06 12:33:42;;;;;;;77.00;37.87;;;4.80;99.90;;;;;;5040804;28;20232;-74
2022/12/06 12:36:31;;;;;;;78.97;37.37;;;4.70;99.90;;;;;;5045770;28;20886;-71
2022/12/06 12:39:34;;;;;;;77.82;46.30;;;4.60;99.90;;;;;;5029817;28;20450;-71
2022/12/06 12:42:28;;;;;;;81.60;39.77;;;4.80;99.90;;;;;;5052133;28;20295;-70
2022/12/06 12:45:19;;;;;;;81.03;38.87;;;4.80;99.90;;;;;;5055020;28;20403;-70
2022/12/06 12:48:21;;;;;;;76.10;39.83;;;4.90;99.90;;;;;;5057887;28;20234;-70
2022/12/06 12:51:32;;;;;;;78.27;38.50;;;4.90;99.90;;;;;;5054584;28;20219;-72
2022/12/06 12:54:25;;;;;;;81.90;38.97;;;4.80;99.90;;;;;;5051458;28;20359;-71
2022/12/06 12:57:13;;;;;;;81.83;38.90;;;4.80;99.90;;;;;;5040787;28;20235;-70
2022/12/06 13:00:03;;;;;;;80.77;37.33;;;4.80;99.90;;;;;;5041727;28;20232;-72
2022/12/06 13:02:57;;;;;;;80.67;39.07;;;4.70;99.90;;;;;;5061088;28;20876;-70
2022/12/06 13:05:49;;;;;;;80.67;40.43;;;4.90;99.90;;;;;;5056365;28;20231;-71
2022/12/06 13:08:39;;;;;;;83.63;39.37;;;4.80;99.90;;;;;;5054600;28;20263;-71
2022/12/06 13:11:29;;;;;;;81.23;39.63;;;4.80;99.90;;;;;;5036664;28;21153;-71
2022/12/06 13:14:20;;;;;;;97.20;39.87;;;4.80;99.90;;;;;;5053616;28;20699;-70
2022/12/06 13:17:12;;;;;;;83.67;39.60;;;5.00;99.90;;;;;;5038351;28;20239;-71
2022/12/06 13:20:04;;;;;;;89.80;40.77;;;4.90;99.90;;;;;;5038371;28;20247;-73
2022/12/06 13:22:57;;;;;;;83.73;39.43;;;4.90;99.90;;;;;;5053446;28;20213;-72
2022/12/06 13:25:50;;;;;;;85.67;41.77;;;4.80;99.90;;;;;;5055078;28;20228;-72
2022/12/06 13:28:42;;;;;;;87.10;40.57;;;4.80;99.90;;;;;;5039383;28;20216;-73
2022/12/06 13:31:37;;;;;;;83.03;39.57;;;4.80;99.90;;;;;;5055059;28;20221;-72
2022/12/06 13:34:31;;;;;;;88.17;41.00;;;4.90;99.90;;;;;;5049771;28;20220;-72
2022/12/06 13:37:34;;;;;;;87.70;40.20;;;4.90;99.90;;;;;;5038659;28;20256;-71
2022/12/06 13:40:46;;;;;;;89.30;40.17;;;4.80;99.90;;;;;;5039008;28;20235;-71
2022/12/06 13:43:59;;;;;;;85.73;40.10;;;4.80;99.90;;;;;;5043919;28;20366;-72
2022/12/06 13:46:47;;;;;;;86.00;39.43;;;4.70;99.90;;;;;;5052631;28;20224;-73
2022/12/06 13:49:43;;;;;;;85.07;40.20;;;4.90;99.90;;;;;;5056311;28;20616;-72
2022/12/06 13:53:10;;;;;;;85.70;39.47;;;4.90;99.90;;;;;;5041528;28;20239;-71
2022/12/06 13:56:01;;;;;;;88.07;39.97;;;4.80;99.90;;;;;;5054497;28;20232;-72
2022/12/06 13:58:53;;;;;;;81.23;39.97;;;4.80;99.90;;;;;;5055537;28;20226;-72
2022/12/06 14:01:44;;;;;;;87.57;39.60;;;4.70;99.90;;;;;;5038376;28;20724;-72
2022/12/06 14:04:35;;;;;;;80.47;39.43;;;4.80;99.90;;;;;;5032621;28;20374;-73
2022/12/06 14:07:32;;;;;;;82.30;38.83;;;4.90;99.90;;;;;;5039787;28;20228;-71
2022/12/06 14:10:22;;;;;;;84.67;40.83;;;4.80;99.90;;;;;;5053394;28;20224;-72
2022/12/06 14:13:16;;;;;;;80.93;40.27;;;4.80;99.90;;;;;;5054172;28;20705;-71
2022/12/06 14:16:07;;;;;;;80.60;38.63;;;4.80;99.90;;;;;;5039756;28;20213;-70
2022/12/06 14:18:56;;;;;;;79.53;39.07;;;4.70;99.90;;;;;;5041371;28;20228;-69
2022/12/06 14:21:52;;;;;;;84.80;41.70;;;4.70;99.90;;;;;;5045499;28;20216;-71
2022/12/06 14:24:42;;;;;;;74.73;37.93;;;4.80;99.90;;;;;;5052292;28;20248;-72
2022/12/06 14:27:35;;;;;;;80.20;39.87;;;4.60;99.90;;;;;;5057743;28;20217;-71
2022/12/06 14:30:26;;;;;;;74.57;36.73;;;4.60;99.90;;;;;;5057921;28;20231;-71
2022/12/06 14:33:21;;;;;;;83.83;37.73;;;4.60;99.90;;;;;;5057733;28;20920;-72
2022/12/06 14:36:17;;;;;;;74.13;36.97;;;4.50;99.90;;;;;;5038474;28;20229;-71
2022/12/06 14:39:12;;;;;;;74.13;34.90;;;4.60;99.90;;;;;;5060574;28;20239;-71
2022/12/06 14:45:15;;;;;;;78.10;39.07;;;4.80;99.90;;;;;;5055550;28;20228;-72
2022/12/06 14:48:04;;;;;;;75.07;37.03;;;4.70;99.90;;;;;;5058244;28;20302;-71
2022/12/06 14:51:00;;;;;;;76.80;35.57;;;4.70;99.90;;;;;;5044104;28;20221;-70
2022/12/06 14:53:49;;;;;;;73.67;36.10;;;4.60;99.90;;;;;;5056053;28;20224;-71
2022/12/06 14:56:37;;;;;;;72.70;35.40;;;4.70;99.90;;;;;;5058688;28;20216;-72
2022/12/06 14:59:27;;;;;;;64.33;35.10;;;4.70;99.90;;;;;;5056164;28;20228;-71
2022/12/06 15:02:40;;;;;;;67.67;35.33;;;4.60;99.90;;;;;;5059612;28;20782;-72
2022/12/06 15:05:35;;;;;;;64.70;33.80;;;4.60;99.90;;;;;;5057212;28;20231;-72
2022/12/06 15:08:34;;;;;;;61.83;34.57;;;4.60;99.90;;;;;;5055317;28;20235;-72
2022/12/06 15:14:49;;;;;;;70.97;35.73;;;4.80;99.90;;;;;;5053819;28;20227;-72
2022/12/06 15:17:40;;;;;;;67.30;35.53;;;4.70;99.90;;;;;;5057100;28;20215;-71